sensor_id;sensor_type;location;lat;lon;timestamp;P1;durP1;ratioP1;P2;durP2;ratioP2
43891;SDS011;29555;45.350;5.578;2023-04-25T00:02:17;1.92;;;1.55;;
43891;SDS011;29555;45.350;5.578;2023-04-25T00:04:42;4.88;;;1.88;;
43891;SDS011;29555;45.350;5.578;2023-04-25T00:07:08;3.70;;;2.00;;
43891;SDS011;29555;45.350;5.578;2023-04-25T00:09:34;1.13;;;1.10;;
43891;SDS011;29555;45.350;5.578;2023-04-25T00:11:59;4.28;;;2.08;;
43891;SDS011;29555;45.350;5.578;2023-04-25T00:14:26;3.17;;;1.60;;
43891;SDS011;29555;45.350;5.578;2023-04-25T00:16:52;1.83;;;1.73;;
43891;SDS011;29555;45.350;5.578;2023-04-25T00:19:19;2.50;;;1.42;;
43891;SDS011;29555;45.350;5.578;2023-04-25T00:21:44;4.20;;;2.05;;
43891;SDS011;29555;45.350;5.578;2023-04-25T00:24:11;10.73;;;3.13;;
43891;SDS011;29555;45.350;5.578;2023-04-25T00:26:37;4.82;;;2.38;;
43891;SDS011;29555;45.350;5.578;2023-04-25T00:29:02;1.73;;;1.63;;
43891;SDS011;29555;45.350;5.578;2023-04-25T00:31:28;2.83;;;1.90;;
43891;SDS011;29555;45.350;5.578;2023-04-25T00:33:54;2.33;;;1.55;;
43891;SDS011;29555;45.350;5.578;2023-04-25T00:36:19;5.35;;;1.95;;
43891;SDS011;29555;45.350;5.578;2023-04-25T00:38:45;3.75;;;2.20;;
43891;SDS011;29555;45.350;5.578;2023-04-25T00:41:10;11.07;;;1.95;;
43891;SDS011;29555;45.350;5.578;2023-04-25T00:43:36;3.47;;;2.10;;
43891;SDS011;29555;45.350;5.578;2023-04-25T00:46:02;4.75;;;2.03;;
43891;SDS011;29555;45.350;5.578;2023-04-25T00:48:28;4.10;;;2.17;;
43891;SDS011;29555;45.350;5.578;2023-04-25T00:50:54;3.97;;;2.95;;
43891;SDS011;29555;45.350;5.578;2023-04-25T00:53:21;3.38;;;2.63;;
43891;SDS011;29555;45.350;5.578;2023-04-25T00:55:47;3.92;;;2.78;;
43891;SDS011;29555;45.350;5.578;2023-04-25T00:58:15;3.47;;;1.95;;
43891;SDS011;29555;45.350;5.578;2023-04-25T01:00:45;1.88;;;1.73;;
43891;SDS011;29555;45.350;5.578;2023-04-25T01:03:12;5.45;;;2.60;;
43891;SDS011;29555;45.350;5.578;2023-04-25T01:05:46;2.22;;;1.77;;
43891;SDS011;29555;45.350;5.578;2023-04-25T01:08:13;2.72;;;2.42;;
43891;SDS011;29555;45.350;5.578;2023-04-25T01:10:39;7.60;;;3.35;;
43891;SDS011;29555;45.350;5.578;2023-04-25T01:13:05;2.35;;;1.95;;
43891;SDS011;29555;45.350;5.578;2023-04-25T01:15:32;4.13;;;2.72;;
43891;SDS011;29555;45.350;5.578;2023-04-25T01:17:58;6.32;;;1.90;;
43891;SDS011;29555;45.350;5.578;2023-04-25T01:20:25;1.98;;;1.77;;
43891;SDS011;29555;45.350;5.578;2023-04-25T01:22:53;7.65;;;1.95;;
43891;SDS011;29555;45.350;5.578;2023-04-25T01:25:20;2.38;;;1.60;;
43891;SDS011;29555;45.350;5.578;2023-04-25T01:27:46;6.13;;;1.80;;
43891;SDS011;29555;45.350;5.578;2023-04-25T01:30:12;1.48;;;1.38;;
43891;SDS011;29555;45.350;5.578;2023-04-25T01:32:38;3.92;;;1.85;;
43891;SDS011;29555;45.350;5.578;2023-04-25T01:35:05;2.55;;;1.75;;
43891;SDS011;29555;45.350;5.578;2023-04-25T01:37:38;2.85;;;2.28;;
43891;SDS011;29555;45.350;5.578;2023-04-25T01:40:04;1.77;;;1.48;;
43891;SDS011;29555;45.350;5.578;2023-04-25T01:42:31;2.47;;;1.55;;
43891;SDS011;29555;45.350;5.578;2023-04-25T01:44:58;3.03;;;2.50;;
43891;SDS011;29555;45.350;5.578;2023-04-25T01:47:23;8.68;;;2.08;;
43891;SDS011;29555;45.350;5.578;2023-04-25T01:49:49;4.05;;;2.35;;
43891;SDS011;29555;45.350;5.578;2023-04-25T01:52:14;4.03;;;2.78;;
43891;SDS011;29555;45.350;5.578;2023-04-25T01:54:40;2.65;;;2.35;;
43891;SDS011;29555;45.350;5.578;2023-04-25T01:57:09;6.03;;;2.22;;
43891;SDS011;29555;45.350;5.578;2023-04-25T01:59:34;2.88;;;2.05;;
43891;SDS011;29555;45.350;5.578;2023-04-25T02:02:00;2.28;;;2.08;;
43891;SDS011;29555;45.350;5.578;2023-04-25T02:04:28;2.13;;;1.30;;
43891;SDS011;29555;45.350;5.578;2023-04-25T02:06:54;1.52;;;1.42;;
43891;SDS011;29555;45.350;5.578;2023-04-25T02:09:20;2.17;;;2.05;;
43891;SDS011;29555;45.350;5.578;2023-04-25T02:11:48;2.35;;;1.85;;
43891;SDS011;29555;45.350;5.578;2023-04-25T02:14:13;2.03;;;1.35;;
43891;SDS011;29555;45.350;5.578;2023-04-25T02:16:38;2.28;;;1.50;;
43891;SDS011;29555;45.350;5.578;2023-04-25T02:19:04;2.47;;;2.00;;
43891;SDS011;29555;45.350;5.578;2023-04-25T02:21:30;2.85;;;2.20;;
43891;SDS011;29555;45.350;5.578;2023-04-25T02:23:56;2.90;;;1.60;;
43891;SDS011;29555;45.350;5.578;2023-04-25T02:26:22;3.85;;;1.88;;
43891;SDS011;29555;45.350;5.578;2023-04-25T02:28:48;5.55;;;2.25;;
43891;SDS011;29555;45.350;5.578;2023-04-25T02:31:14;4.97;;;1.85;;
43891;SDS011;29555;45.350;5.578;2023-04-25T02:33:40;2.35;;;1.85;;
43891;SDS011;29555;45.350;5.578;2023-04-25T02:36:05;3.60;;;1.48;;
43891;SDS011;29555;45.350;5.578;2023-04-25T02:38:31;2.35;;;2.15;;
43891;SDS011;29555;45.350;5.578;2023-04-25T02:40:56;2.13;;;1.92;;
43891;SDS011;29555;45.350;5.578;2023-04-25T02:43:22;6.82;;;2.10;;
43891;SDS011;29555;45.350;5.578;2023-04-25T02:45:47;1.73;;;1.63;;
43891;SDS011;29555;45.350;5.578;2023-04-25T02:48:12;4.28;;;2.00;;
43891;SDS011;29555;45.350;5.578;2023-04-25T02:50:38;4.03;;;2.53;;
43891;SDS011;29555;45.350;5.578;2023-04-25T02:53:03;2.40;;;2.20;;
43891;SDS011;29555;45.350;5.578;2023-04-25T02:55:29;4.45;;;2.70;;
43891;SDS011;29555;45.350;5.578;2023-04-25T02:57:54;2.28;;;1.48;;
43891;SDS011;29555;45.350;5.578;2023-04-25T03:00:22;3.70;;;2.50;;
43891;SDS011;29555;45.350;5.578;2023-04-25T03:02:48;1.77;;;1.50;;
43891;SDS011;29555;45.350;5.578;2023-04-25T03:05:13;2.45;;;2.22;;
43891;SDS011;29555;45.350;5.578;2023-04-25T03:07:39;18.30;;;2.92;;
43891;SDS011;29555;45.350;5.578;2023-04-25T03:10:05;4.15;;;2.30;;
43891;SDS011;29555;45.350;5.578;2023-04-25T03:12:32;2.58;;;2.38;;
43891;SDS011;29555;45.350;5.578;2023-04-25T03:14:57;6.88;;;3.47;;
43891;SDS011;29555;45.350;5.578;2023-04-25T03:17:25;4.25;;;2.85;;
43891;SDS011;29555;45.350;5.578;2023-04-25T03:19:50;5.45;;;3.13;;
43891;SDS011;29555;45.350;5.578;2023-04-25T03:22:16;3.88;;;2.72;;
43891;SDS011;29555;45.350;5.578;2023-04-25T03:24:41;3.33;;;3.03;;
43891;SDS011;29555;45.350;5.578;2023-04-25T03:27:06;6.97;;;3.45;;
43891;SDS011;29555;45.350;5.578;2023-04-25T03:29:32;3.10;;;2.85;;
43891;SDS011;29555;45.350;5.578;2023-04-25T03:31:57;5.85;;;3.13;;
43891;SDS011;29555;45.350;5.578;2023-04-25T03:34:22;6.63;;;3.63;;
43891;SDS011;29555;45.350;5.578;2023-04-25T03:36:49;3.13;;;2.80;;
43891;SDS011;29555;45.350;5.578;2023-04-25T03:39:14;8.73;;;3.10;;
43891;SDS011;29555;45.350;5.578;2023-04-25T03:41:40;7.43;;;3.45;;
43891;SDS011;29555;45.350;5.578;2023-04-25T03:44:05;6.65;;;2.85;;
43891;SDS011;29555;45.350;5.578;2023-04-25T03:46:30;5.78;;;3.35;;
43891;SDS011;29555;45.350;5.578;2023-04-25T03:48:56;3.97;;;2.80;;
43891;SDS011;29555;45.350;5.578;2023-04-25T03:51:21;3.55;;;1.90;;
43891;SDS011;29555;45.350;5.578;2023-04-25T03:53:47;4.97;;;3.03;;
43891;SDS011;29555;45.350;5.578;2023-04-25T03:56:12;3.60;;;2.78;;
43891;SDS011;29555;45.350;5.578;2023-04-25T03:58:38;3.35;;;2.22;;
43891;SDS011;29555;45.350;5.578;2023-04-25T04:01:03;3.30;;;2.88;;
43891;SDS011;29555;45.350;5.578;2023-04-25T04:03:32;10.32;;;4.05;;
43891;SDS011;29555;45.350;5.578;2023-04-25T04:05:59;4.60;;;3.28;;
43891;SDS011;29555;45.350;5.578;2023-04-25T04:08:24;3.05;;;2.75;;
43891;SDS011;29555;45.350;5.578;2023-04-25T04:10:50;4.72;;;2.85;;
43891;SDS011;29555;45.350;5.578;2023-04-25T04:13:15;4.68;;;3.03;;
43891;SDS011;29555;45.350;5.578;2023-04-25T04:15:40;5.50;;;3.38;;
43891;SDS011;29555;45.350;5.578;2023-04-25T04:18:06;3.33;;;2.40;;
43891;SDS011;29555;45.350;5.578;2023-04-25T04:20:31;6.32;;;2.10;;
43891;SDS011;29555;45.350;5.578;2023-04-25T04:22:57;2.67;;;2.45;;
43891;SDS011;29555;45.350;5.578;2023-04-25T04:25:22;4.18;;;2.45;;
43891;SDS011;29555;45.350;5.578;2023-04-25T04:27:49;3.08;;;2.50;;
43891;SDS011;29555;45.350;5.578;2023-04-25T04:30:16;7.65;;;2.97;;
43891;SDS011;29555;45.350;5.578;2023-04-25T04:32:42;2.75;;;1.95;;
43891;SDS011;29555;45.350;5.578;2023-04-25T04:35:08;7.50;;;2.35;;
43891;SDS011;29555;45.350;5.578;2023-04-25T04:37:34;4.60;;;2.65;;
43891;SDS011;29555;45.350;5.578;2023-04-25T04:39:59;6.45;;;1.83;;
43891;SDS011;29555;45.350;5.578;2023-04-25T04:42:26;2.50;;;2.30;;
43891;SDS011;29555;45.350;5.578;2023-04-25T04:44:51;8.25;;;2.30;;
43891;SDS011;29555;45.350;5.578;2023-04-25T04:47:17;17.25;;;3.65;;
43891;SDS011;29555;45.350;5.578;2023-04-25T04:49:42;3.38;;;1.85;;
43891;SDS011;29555;45.350;5.578;2023-04-25T04:52:07;9.55;;;2.25;;
43891;SDS011;29555;45.350;5.578;2023-04-25T04:54:33;6.75;;;2.40;;
43891;SDS011;29555;45.350;5.578;2023-04-25T04:57:00;6.32;;;2.45;;
43891;SDS011;29555;45.350;5.578;2023-04-25T04:59:25;3.95;;;2.63;;
43891;SDS011;29555;45.350;5.578;2023-04-25T05:01:52;5.68;;;2.88;;
43891;SDS011;29555;45.350;5.578;2023-04-25T05:04:17;4.82;;;3.00;;
43891;SDS011;29555;45.350;5.578;2023-04-25T05:06:43;7.40;;;4.22;;
43891;SDS011;29555;45.350;5.578;2023-04-25T05:09:09;4.38;;;3.03;;
43891;SDS011;29555;45.350;5.578;2023-04-25T05:11:34;2.58;;;2.38;;
43891;SDS011;29555;45.350;5.578;2023-04-25T05:14:00;6.30;;;2.90;;
43891;SDS011;29555;45.350;5.578;2023-04-25T05:16:25;7.22;;;2.78;;
43891;SDS011;29555;45.350;5.578;2023-04-25T05:18:50;8.88;;;2.17;;
43891;SDS011;29555;45.350;5.578;2023-04-25T05:21:16;2.80;;;2.35;;
43891;SDS011;29555;45.350;5.578;2023-04-25T05:23:41;4.90;;;2.55;;
43891;SDS011;29555;45.350;5.578;2023-04-25T05:26:06;5.75;;;2.55;;
43891;SDS011;29555;45.350;5.578;2023-04-25T05:28:38;13.65;;;2.63;;
43891;SDS011;29555;45.350;5.578;2023-04-25T05:31:04;7.03;;;2.92;;
43891;SDS011;29555;45.350;5.578;2023-04-25T05:33:30;4.70;;;2.53;;
43891;SDS011;29555;45.350;5.578;2023-04-25T05:35:55;3.42;;;1.73;;
43891;SDS011;29555;45.350;5.578;2023-04-25T05:38:20;3.45;;;2.17;;
43891;SDS011;29555;45.350;5.578;2023-04-25T05:40:46;5.55;;;2.08;;
43891;SDS011;29555;45.350;5.578;2023-04-25T05:43:11;2.08;;;1.95;;
43891;SDS011;29555;45.350;5.578;2023-04-25T05:45:36;3.60;;;2.35;;
43891;SDS011;29555;45.350;5.578;2023-04-25T05:48:02;3.42;;;2.15;;
43891;SDS011;29555;45.350;5.578;2023-04-25T05:50:27;12.23;;;3.47;;
43891;SDS011;29555;45.350;5.578;2023-04-25T05:52:53;5.35;;;2.30;;
43891;SDS011;29555;45.350;5.578;2023-04-25T05:55:18;4.88;;;2.55;;
43891;SDS011;29555;45.350;5.578;2023-04-25T05:57:44;6.18;;;2.03;;
43891;SDS011;29555;45.350;5.578;2023-04-25T06:00:11;5.43;;;2.25;;
43891;SDS011;29555;45.350;5.578;2023-04-25T06:02:37;4.55;;;2.47;;
43891;SDS011;29555;45.350;5.578;2023-04-25T06:05:03;4.57;;;2.35;;
43891;SDS011;29555;45.350;5.578;2023-04-25T06:07:28;3.70;;;2.35;;
43891;SDS011;29555;45.350;5.578;2023-04-25T06:09:55;4.88;;;3.00;;
43891;SDS011;29555;45.350;5.578;2023-04-25T06:12:20;10.00;;;3.35;;
43891;SDS011;29555;45.350;5.578;2023-04-25T06:14:45;6.65;;;2.65;;
43891;SDS011;29555;45.350;5.578;2023-04-25T06:17:11;4.68;;;2.50;;
43891;SDS011;29555;45.350;5.578;2023-04-25T06:19:36;3.80;;;2.40;;
43891;SDS011;29555;45.350;5.578;2023-04-25T06:22:02;6.35;;;1.88;;
43891;SDS011;29555;45.350;5.578;2023-04-25T06:24:27;5.78;;;2.30;;
43891;SDS011;29555;45.350;5.578;2023-04-25T06:26:53;5.82;;;2.38;;
43891;SDS011;29555;45.350;5.578;2023-04-25T06:29:19;4.25;;;2.90;;
43891;SDS011;29555;45.350;5.578;2023-04-25T06:31:44;5.20;;;2.80;;
43891;SDS011;29555;45.350;5.578;2023-04-25T06:34:10;4.35;;;2.72;;
43891;SDS011;29555;45.350;5.578;2023-04-25T06:36:35;5.97;;;2.92;;
43891;SDS011;29555;45.350;5.578;2023-04-25T06:39:01;4.03;;;2.70;;
43891;SDS011;29555;45.350;5.578;2023-04-25T06:41:26;8.93;;;3.38;;
43891;SDS011;29555;45.350;5.578;2023-04-25T06:43:51;16.10;;;2.88;;
43891;SDS011;29555;45.350;5.578;2023-04-25T06:46:17;7.40;;;2.95;;
43891;SDS011;29555;45.350;5.578;2023-04-25T06:48:42;8.25;;;3.15;;
43891;SDS011;29555;45.350;5.578;2023-04-25T06:51:08;8.55;;;3.75;;
43891;SDS011;29555;45.350;5.578;2023-04-25T06:53:33;4.82;;;3.10;;
43891;SDS011;29555;45.350;5.578;2023-04-25T06:55:58;3.22;;;2.20;;
43891;SDS011;29555;45.350;5.578;2023-04-25T06:58:24;11.40;;;3.72;;
43891;SDS011;29555;45.350;5.578;2023-04-25T07:00:51;8.45;;;3.42;;
43891;SDS011;29555;45.350;5.578;2023-04-25T07:03:16;4.50;;;2.85;;
43891;SDS011;29555;45.350;5.578;2023-04-25T07:05:41;4.32;;;2.13;;
43891;SDS011;29555;45.350;5.578;2023-04-25T07:08:07;12.40;;;3.35;;
43891;SDS011;29555;45.350;5.578;2023-04-25T07:10:32;5.45;;;2.95;;
43891;SDS011;29555;45.350;5.578;2023-04-25T07:12:57;6.50;;;2.90;;
43891;SDS011;29555;45.350;5.578;2023-04-25T07:15:23;6.00;;;3.65;;
43891;SDS011;29555;45.350;5.578;2023-04-25T07:17:48;7.13;;;3.40;;
43891;SDS011;29555;45.350;5.578;2023-04-25T07:20:14;6.93;;;3.30;;
43891;SDS011;29555;45.350;5.578;2023-04-25T07:22:39;6.97;;;3.05;;
43891;SDS011;29555;45.350;5.578;2023-04-25T07:25:05;8.18;;;3.33;;
43891;SDS011;29555;45.350;5.578;2023-04-25T07:27:31;12.10;;;3.63;;
43891;SDS011;29555;45.350;5.578;2023-04-25T07:29:56;3.47;;;2.67;;
43891;SDS011;29555;45.350;5.578;2023-04-25T07:32:22;3.20;;;2.10;;
43891;SDS011;29555;45.350;5.578;2023-04-25T07:34:47;7.20;;;2.72;;
43891;SDS011;29555;45.350;5.578;2023-04-25T07:37:13;3.72;;;2.60;;
43891;SDS011;29555;45.350;5.578;2023-04-25T07:39:39;6.40;;;3.30;;
43891;SDS011;29555;45.350;5.578;2023-04-25T07:42:05;7.50;;;2.67;;
43891;SDS011;29555;45.350;5.578;2023-04-25T07:44:32;3.58;;;2.25;;
43891;SDS011;29555;45.350;5.578;2023-04-25T07:47:03;6.55;;;3.03;;
43891;SDS011;29555;45.350;5.578;2023-04-25T07:49:30;2.85;;;2.47;;
43891;SDS011;29555;45.350;5.578;2023-04-25T07:51:55;3.38;;;1.98;;
43891;SDS011;29555;45.350;5.578;2023-04-25T07:54:21;13.52;;;3.45;;
43891;SDS011;29555;45.350;5.578;2023-04-25T07:56:46;3.78;;;2.33;;
43891;SDS011;29555;45.350;5.578;2023-04-25T07:59:11;3.25;;;1.77;;
43891;SDS011;29555;45.350;5.578;2023-04-25T08:01:37;15.40;;;3.10;;
43891;SDS011;29555;45.350;5.578;2023-04-25T08:04:02;3.55;;;2.53;;
43891;SDS011;29555;45.350;5.578;2023-04-25T08:06:27;7.95;;;3.08;;
43891;SDS011;29555;45.350;5.578;2023-04-25T08:08:53;2.97;;;2.15;;
43891;SDS011;29555;45.350;5.578;2023-04-25T08:11:18;6.38;;;1.60;;
43891;SDS011;29555;45.350;5.578;2023-04-25T08:13:43;2.45;;;2.35;;
43891;SDS011;29555;45.350;5.578;2023-04-25T08:16:09;6.13;;;2.25;;
43891;SDS011;29555;45.350;5.578;2023-04-25T08:18:34;5.95;;;3.03;;
43891;SDS011;29555;45.350;5.578;2023-04-25T08:20:59;20.75;;;2.67;;
43891;SDS011;29555;45.350;5.578;2023-04-25T08:23:25;2.80;;;2.13;;
43891;SDS011;29555;45.350;5.578;2023-04-25T08:25:50;6.03;;;3.65;;
43891;SDS011;29555;45.350;5.578;2023-04-25T08:28:16;5.75;;;2.88;;
43891;SDS011;29555;45.350;5.578;2023-04-25T08:30:41;3.78;;;2.08;;
43891;SDS011;29555;45.350;5.578;2023-04-25T08:33:06;3.83;;;2.38;;
43891;SDS011;29555;45.350;5.578;2023-04-25T08:35:32;1.88;;;1.40;;
43891;SDS011;29555;45.350;5.578;2023-04-25T08:37:58;2.75;;;2.47;;
43891;SDS011;29555;45.350;5.578;2023-04-25T08:40:24;5.43;;;3.15;;
43891;SDS011;29555;45.350;5.578;2023-04-25T08:42:53;4.65;;;2.60;;
43891;SDS011;29555;45.350;5.578;2023-04-25T08:45:21;2.15;;;1.80;;
43891;SDS011;29555;45.350;5.578;2023-04-25T08:47:47;5.32;;;2.90;;
43891;SDS011;29555;45.350;5.578;2023-04-25T08:50:13;5.30;;;1.73;;
43891;SDS011;29555;45.350;5.578;2023-04-25T08:52:42;8.93;;;2.58;;
43891;SDS011;29555;45.350;5.578;2023-04-25T08:55:11;3.50;;;2.33;;
43891;SDS011;29555;45.350;5.578;2023-04-25T08:57:38;6.07;;;2.70;;
43891;SDS011;29555;45.350;5.578;2023-04-25T09:00:05;3.72;;;2.10;;
43891;SDS011;29555;45.350;5.578;2023-04-25T09:02:32;16.65;;;1.85;;
43891;SDS011;29555;45.350;5.578;2023-04-25T09:04:58;8.05;;;2.90;;
43891;SDS011;29555;45.350;5.578;2023-04-25T09:07:24;3.63;;;2.55;;
43891;SDS011;29555;45.350;5.578;2023-04-25T09:09:50;3.58;;;2.47;;
43891;SDS011;29555;45.350;5.578;2023-04-25T09:12:18;3.92;;;2.45;;
43891;SDS011;29555;45.350;5.578;2023-04-25T09:14:46;4.07;;;2.42;;
43891;SDS011;29555;45.350;5.578;2023-04-25T09:17:27;2.78;;;2.10;;
43891;SDS011;29555;45.350;5.578;2023-04-25T09:19:53;4.00;;;2.70;;
43891;SDS011;29555;45.350;5.578;2023-04-25T09:22:19;2.45;;;2.20;;
43891;SDS011;29555;45.350;5.578;2023-04-25T09:24:47;3.45;;;2.28;;
43891;SDS011;29555;45.350;5.578;2023-04-25T09:27:18;7.07;;;2.25;;
43891;SDS011;29555;45.350;5.578;2023-04-25T09:29:44;2.78;;;1.95;;
43891;SDS011;29555;45.350;5.578;2023-04-25T09:32:12;2.38;;;2.05;;
43891;SDS011;29555;45.350;5.578;2023-04-25T09:34:40;3.13;;;1.98;;
43891;SDS011;29555;45.350;5.578;2023-04-25T09:37:10;4.05;;;1.73;;
43891;SDS011;29555;45.350;5.578;2023-04-25T09:39:37;5.93;;;2.30;;
43891;SDS011;29555;45.350;5.578;2023-04-25T09:42:06;4.63;;;2.55;;
43891;SDS011;29555;45.350;5.578;2023-04-25T09:44:35;4.07;;;2.40;;
43891;SDS011;29555;45.350;5.578;2023-04-25T09:47:01;3.13;;;2.47;;
43891;SDS011;29555;45.350;5.578;2023-04-25T09:49:27;2.83;;;2.10;;
43891;SDS011;29555;45.350;5.578;2023-04-25T09:51:53;9.18;;;3.28;;
43891;SDS011;29555;45.350;5.578;2023-04-25T09:54:20;7.15;;;2.35;;
43891;SDS011;29555;45.350;5.578;2023-04-25T09:56:46;10.27;;;2.65;;
43891;SDS011;29555;45.350;5.578;2023-04-25T09:59:13;7.55;;;2.63;;
43891;SDS011;29555;45.350;5.578;2023-04-25T10:01:40;2.83;;;2.63;;
43891;SDS011;29555;45.350;5.578;2023-04-25T10:04:06;4.95;;;2.10;;
43891;SDS011;29555;45.350;5.578;2023-04-25T10:06:35;5.65;;;2.55;;
43891;SDS011;29555;45.350;5.578;2023-04-25T10:09:03;5.85;;;2.15;;
43891;SDS011;29555;45.350;5.578;2023-04-25T10:11:29;6.03;;;2.20;;
43891;SDS011;29555;45.350;5.578;2023-04-25T10:13:56;2.30;;;2.13;;
43891;SDS011;29555;45.350;5.578;2023-04-25T10:16:22;2.60;;;1.88;;
43891;SDS011;29555;45.350;5.578;2023-04-25T10:18:49;3.80;;;2.72;;
43891;SDS011;29555;45.350;5.578;2023-04-25T10:21:15;3.25;;;2.42;;
43891;SDS011;29555;45.350;5.578;2023-04-25T10:23:41;2.92;;;1.90;;
43891;SDS011;29555;45.350;5.578;2023-04-25T10:26:07;2.55;;;2.30;;
43891;SDS011;29555;45.350;5.578;2023-04-25T10:31:32;2.70;;;2.30;;
43891;SDS011;29555;45.350;5.578;2023-04-25T10:33:59;3.33;;;2.53;;
43891;SDS011;29555;45.350;5.578;2023-04-25T10:36:25;6.43;;;2.75;;
43891;SDS011;29555;45.350;5.578;2023-04-25T10:38:52;2.25;;;1.80;;
43891;SDS011;29555;45.350;5.578;2023-04-25T10:41:18;1.90;;;1.42;;
43891;SDS011;29555;45.350;5.578;2023-04-25T10:43:45;5.38;;;1.80;;
43891;SDS011;29555;45.350;5.578;2023-04-25T10:46:13;2.40;;;2.00;;
43891;SDS011;29555;45.350;5.578;2023-04-25T10:48:54;2.80;;;2.42;;
43891;SDS011;29555;45.350;5.578;2023-04-25T10:51:57;2.38;;;1.88;;
43891;SDS011;29555;45.350;5.578;2023-04-25T10:54:12;5.43;;;2.78;;
43891;SDS011;29555;45.350;5.578;2023-04-25T10:56:38;4.93;;;2.10;;
43891;SDS011;29555;45.350;5.578;2023-04-25T11:01:46;19.65;;;3.13;;
43891;SDS011;29555;45.350;5.578;2023-04-25T11:04:20;1.42;;;1.33;;
43891;SDS011;29555;45.350;5.578;2023-04-25T11:06:51;1.77;;;1.48;;
43891;SDS011;29555;45.350;5.578;2023-04-25T11:09:26;6.82;;;2.60;;
43891;SDS011;29555;45.350;5.578;2023-04-25T11:11:55;2.67;;;2.47;;
43891;SDS011;29555;45.350;5.578;2023-04-25T11:14:24;4.17;;;2.20;;
43891;SDS011;29555;45.350;5.578;2023-04-25T11:16:53;1.98;;;1.80;;
43891;SDS011;29555;45.350;5.578;2023-04-25T11:19:23;1.98;;;1.88;;
43891;SDS011;29555;45.350;5.578;2023-04-25T11:21:49;2.63;;;1.50;;
43891;SDS011;29555;45.350;5.578;2023-04-25T11:24:15;2.10;;;1.58;;
43891;SDS011;29555;45.350;5.578;2023-04-25T11:26:42;1.63;;;1.50;;
43891;SDS011;29555;45.350;5.578;2023-04-25T11:29:08;2.38;;;1.75;;
43891;SDS011;29555;45.350;5.578;2023-04-25T11:31:34;1.67;;;1.48;;
43891;SDS011;29555;45.350;5.578;2023-04-25T11:33:59;3.05;;;1.88;;
43891;SDS011;29555;45.350;5.578;2023-04-25T11:36:25;9.63;;;2.80;;
43891;SDS011;29555;45.350;5.578;2023-04-25T11:38:51;3.30;;;2.50;;
43891;SDS011;29555;45.350;5.578;2023-04-25T11:41:17;1.83;;;1.58;;
43891;SDS011;29555;45.350;5.578;2023-04-25T11:43:43;3.78;;;1.33;;
43891;SDS011;29555;45.350;5.578;2023-04-25T11:46:09;3.20;;;1.88;;
43891;SDS011;29555;45.350;5.578;2023-04-25T11:48:41;2.80;;;1.58;;
43891;SDS011;29555;45.350;5.578;2023-04-25T11:51:07;1.73;;;1.45;;
43891;SDS011;29555;45.350;5.578;2023-04-25T11:53:32;1.90;;;1.75;;
43891;SDS011;29555;45.350;5.578;2023-04-25T11:55:58;4.00;;;1.83;;
43891;SDS011;29555;45.350;5.578;2023-04-25T11:58:25;2.53;;;1.95;;
43891;SDS011;29555;45.350;5.578;2023-04-25T12:00:50;1.95;;;1.83;;
43891;SDS011;29555;45.350;5.578;2023-04-25T12:03:17;2.67;;;1.00;;
43891;SDS011;29555;45.350;5.578;2023-04-25T12:05:44;1.10;;;0.90;;
43891;SDS011;29555;45.350;5.578;2023-04-25T12:08:13;6.40;;;1.63;;
43891;SDS011;29555;45.350;5.578;2023-04-25T12:10:40;2.35;;;1.85;;
43891;SDS011;29555;45.350;5.578;2023-04-25T12:15:50;13.18;;;1.85;;
43891;SDS011;29555;45.350;5.578;2023-04-25T12:18:19;8.30;;;1.45;;
43891;SDS011;29555;45.350;5.578;2023-04-25T12:20:46;2.88;;;1.27;;
43891;SDS011;29555;45.350;5.578;2023-04-25T12:23:11;1.52;;;1.35;;
43891;SDS011;29555;45.350;5.578;2023-04-25T12:25:38;4.25;;;1.67;;
43891;SDS011;29555;45.350;5.578;2023-04-25T12:33:22;3.55;;;1.02;;
43891;SDS011;29555;45.350;5.578;2023-04-25T12:35:48;3.92;;;1.77;;
43891;SDS011;29555;45.350;5.578;2023-04-25T12:38:23;1.40;;;1.30;;
43891;SDS011;29555;45.350;5.578;2023-04-25T12:40:53;1.73;;;1.63;;
43891;SDS011;29555;45.350;5.578;2023-04-25T12:43:19;2.58;;;1.20;;
43891;SDS011;29555;45.350;5.578;2023-04-25T12:45:47;5.90;;;1.63;;
43891;SDS011;29555;45.350;5.578;2023-04-25T12:48:19;1.92;;;1.48;;
43891;SDS011;29555;45.350;5.578;2023-04-25T12:50:46;0.68;;;0.68;;
43891;SDS011;29555;45.350;5.578;2023-04-25T12:53:15;1.35;;;1.25;;
43891;SDS011;29555;45.350;5.578;2023-04-25T12:55:42;1.73;;;1.05;;
43891;SDS011;29555;45.350;5.578;2023-04-25T12:58:07;5.53;;;1.98;;
43891;SDS011;29555;45.350;5.578;2023-04-25T13:00:32;2.20;;;1.48;;
43891;SDS011;29555;45.350;5.578;2023-04-25T13:02:58;2.75;;;1.73;;
43891;SDS011;29555;45.350;5.578;2023-04-25T13:05:24;1.63;;;1.33;;
43891;SDS011;29555;45.350;5.578;2023-04-25T13:07:50;6.30;;;1.58;;
43891;SDS011;29555;45.350;5.578;2023-04-25T13:10:16;4.80;;;1.92;;
43891;SDS011;29555;45.350;5.578;2023-04-25T13:12:42;1.02;;;0.93;;
43891;SDS011;29555;45.350;5.578;2023-04-25T13:15:08;4.40;;;1.25;;
43891;SDS011;29555;45.350;5.578;2023-04-25T13:17:36;5.38;;;1.70;;
43891;SDS011;29555;45.350;5.578;2023-04-25T13:20:01;1.77;;;1.67;;
43891;SDS011;29555;45.350;5.578;2023-04-25T13:22:29;3.38;;;1.70;;
43891;SDS011;29555;45.350;5.578;2023-04-25T13:24:54;2.72;;;1.02;;
43891;SDS011;29555;45.350;5.578;2023-04-25T13:27:19;1.48;;;0.85;;
43891;SDS011;29555;45.350;5.578;2023-04-25T13:29:45;2.65;;;1.70;;
43891;SDS011;29555;45.350;5.578;2023-04-25T13:32:10;6.22;;;1.30;;
43891;SDS011;29555;45.350;5.578;2023-04-25T13:34:35;3.55;;;1.33;;
43891;SDS011;29555;45.350;5.578;2023-04-25T13:37:01;1.65;;;1.23;;
43891;SDS011;29555;45.350;5.578;2023-04-25T13:39:26;4.47;;;1.52;;
43891;SDS011;29555;45.350;5.578;2023-04-25T13:41:52;1.23;;;1.08;;
43891;SDS011;29555;45.350;5.578;2023-04-25T13:44:17;1.15;;;1.05;;
43891;SDS011;29555;45.350;5.578;2023-04-25T13:46:42;2.30;;;1.20;;
43891;SDS011;29555;45.350;5.578;2023-04-25T13:49:08;5.55;;;1.60;;
43891;SDS011;29555;45.350;5.578;2023-04-25T13:51:34;5.35;;;1.83;;
43891;SDS011;29555;45.350;5.578;2023-04-25T13:53:59;1.40;;;0.80;;
43891;SDS011;29555;45.350;5.578;2023-04-25T13:56:25;3.65;;;1.27;;
43891;SDS011;29555;45.350;5.578;2023-04-25T13:58:51;3.53;;;0.82;;
43891;SDS011;29555;45.350;5.578;2023-04-25T14:01:16;3.97;;;1.17;;
43891;SDS011;29555;45.350;5.578;2023-04-25T14:03:42;4.00;;;1.33;;
43891;SDS011;29555;45.350;5.578;2023-04-25T14:06:07;1.95;;;0.80;;
43891;SDS011;29555;45.350;5.578;2023-04-25T14:08:33;0.75;;;0.60;;
43891;SDS011;29555;45.350;5.578;2023-04-25T14:10:59;3.75;;;1.40;;
43891;SDS011;29555;45.350;5.578;2023-04-25T14:13:24;4.90;;;0.98;;
43891;SDS011;29555;45.350;5.578;2023-04-25T14:15:50;4.00;;;1.83;;
43891;SDS011;29555;45.350;5.578;2023-04-25T14:18:15;2.40;;;1.55;;
43891;SDS011;29555;45.350;5.578;2023-04-25T14:20:40;1.42;;;1.23;;
43891;SDS011;29555;45.350;5.578;2023-04-25T14:23:06;10.68;;;1.05;;
43891;SDS011;29555;45.350;5.578;2023-04-25T14:25:31;1.80;;;1.15;;
43891;SDS011;29555;45.350;5.578;2023-04-25T14:27:57;1.35;;;0.80;;
43891;SDS011;29555;45.350;5.578;2023-04-25T14:30:22;4.35;;;1.63;;
43891;SDS011;29555;45.350;5.578;2023-04-25T14:32:48;2.17;;;1.02;;
43891;SDS011;29555;45.350;5.578;2023-04-25T14:35:14;2.70;;;1.73;;
43891;SDS011;29555;45.350;5.578;2023-04-25T14:37:40;0.85;;;0.80;;
43891;SDS011;29555;45.350;5.578;2023-04-25T14:40:05;2.15;;;1.45;;
43891;SDS011;29555;45.350;5.578;2023-04-25T14:42:33;1.10;;;1.00;;
43891;SDS011;29555;45.350;5.578;2023-04-25T14:44:59;1.67;;;1.58;;
43891;SDS011;29555;45.350;5.578;2023-04-25T14:47:24;3.03;;;1.17;;
43891;SDS011;29555;45.350;5.578;2023-04-25T14:49:49;2.15;;;1.85;;
43891;SDS011;29555;45.350;5.578;2023-04-25T14:52:19;0.93;;;0.57;;
43891;SDS011;29555;45.350;5.578;2023-04-25T14:54:45;35.35;;;1.70;;
43891;SDS011;29555;45.350;5.578;2023-04-25T14:57:11;3.30;;;1.08;;